createdAt,value
2022-08-11T00:01:08.931Z,85.84
2022-08-11T00:03:43.432Z,86.79
2022-08-11T00:06:13.964Z,86.41
2022-08-11T00:08:42.383Z,86.16
2022-08-11T00:11:12.332Z,86.14
2022-08-11T00:13:42.096Z,86.19
2022-08-11T00:16:14.593Z,86.30
2022-08-11T00:18:44.046Z,87.03
2022-08-11T00:21:12.770Z,87.32
2022-08-11T00:23:43.621Z,86.99
2022-08-11T00:26:13.286Z,86.85
2022-08-11T00:28:41.675Z,87.27
2022-08-11T00:31:10.844Z,87.77
2022-08-11T00:33:41.129Z,87.48
2022-08-11T00:36:22.006Z,87.48
2022-08-11T00:38:53.995Z,87.77
2022-08-11T00:41:33.030Z,87.67
2022-08-11T00:44:37.730Z,87.40
2022-08-11T00:47:18.617Z,87.64
2022-08-11T00:50:05.640Z,88.48
2022-08-11T00:53:10.791Z,88.60
2022-08-11T00:56:21.193Z,88.64
2022-08-11T00:59:36.341Z,89.18
2022-08-11T01:02:17.458Z,89.36
2022-08-11T01:05:15.332Z,89.16
2022-08-11T01:08:27.866Z,88.75
2022-08-11T01:11:24.883Z,88.43
2022-08-11T01:14:26.123Z,88.23
2022-08-11T01:17:43.013Z,88.35
2022-08-11T01:20:47.573Z,88.36
2022-08-11T01:23:41.198Z,88.59
2022-08-11T01:26:53.544Z,88.93
2022-08-11T01:29:39.416Z,89.34
2022-08-11T01:32:36.164Z,89.99
2022-08-11T01:35:22.614Z,90.98
2022-08-11T01:38:28.924Z,90.74
2022-08-11T01:41:24.122Z,90.49
2022-08-11T01:44:22.785Z,90.40
2022-08-11T01:46:53.435Z,90.02
2022-08-11T01:49:29.162Z,89.49
2022-08-11T01:52:34.651Z,89.76
2022-08-11T01:55:10.366Z,89.85
2022-08-11T01:57:43.701Z,89.95
2022-08-11T02:00:15.505Z,89.71
2022-08-11T02:02:53.918Z,90.08
2022-08-11T02:05:28.766Z,90.17
2022-08-11T02:08:02.721Z,89.73
2022-08-11T02:10:53.306Z,90.61
2022-08-11T02:13:35.577Z,90.51
2022-08-11T02:16:11.601Z,91.17
2022-08-11T02:19:01.044Z,90.68
2022-08-11T02:21:49.883Z,91.54
2022-08-11T02:24:23.021Z,91.45
2022-08-11T02:26:57.025Z,91.40
2022-08-11T02:29:26.921Z,91.27
2022-08-11T02:32:28.768Z,91.13
2022-08-11T02:35:09.443Z,91.52
2022-08-11T02:37:51.382Z,91.84
2022-08-11T02:40:26.129Z,91.74
2022-08-11T02:43:05.802Z,91.93
2022-08-11T02:45:47.214Z,93.04
2022-08-11T02:48:38.560Z,92.15
2022-08-11T02:51:15.350Z,91.86
2022-08-11T02:53:58.095Z,91.61
2022-08-11T02:56:39.037Z,91.52
2022-08-11T02:59:27.781Z,91.34
2022-08-11T03:02:02.432Z,91.17
2022-08-11T03:04:39.086Z,91.03
2022-08-11T03:07:29.077Z,91.50
2022-08-11T03:10:06.964Z,91.49
2022-08-11T03:13:03.306Z,92.34
2022-08-11T03:16:02.138Z,92.47
2022-08-11T03:18:35.658Z,91.62
2022-08-11T03:21:09.031Z,91.81
2022-08-11T03:23:42.665Z,92.22
2022-08-11T03:26:15.628Z,91.99
2022-08-11T03:28:47.134Z,92.11
2022-08-11T03:31:24.674Z,91.96
2022-08-11T03:34:06.605Z,92.36
2022-08-11T03:37:16.348Z,92.21
2022-08-11T03:39:56.748Z,92.63
2022-08-11T03:42:28.672Z,92.34
2022-08-11T03:45:12.538Z,92.67
2022-08-11T03:47:55.703Z,93.48
2022-08-11T03:50:42.354Z,93.50
2022-08-11T03:53:16.297Z,93.09
2022-08-11T03:56:08.189Z,92.95
2022-08-11T03:58:56.373Z,93.06
2022-08-11T04:01:59.186Z,92.73
2022-08-11T04:04:55.242Z,92.36
2022-08-11T04:07:41.305Z,92.44
2022-08-11T04:10:38.774Z,92.03
2022-08-11T04:13:45.661Z,91.92
2022-08-11T04:16:43.993Z,92.47
2022-08-11T04:19:36.410Z,93.40
2022-08-11T04:22:43.307Z,93.16
2022-08-11T04:25:24.752Z,93.40
2022-08-11T04:28:08.634Z,93.38
2022-08-11T04:31:06.139Z,93.52
2022-08-11T04:33:56.598Z,93.63
2022-08-11T04:36:57.926Z,93.99
2022-08-11T04:39:40.672Z,94.05
2022-08-11T04:42:34.003Z,93.92
2022-08-11T04:45:27.261Z,94.79
2022-08-11T04:48:25.509Z,94.86
2022-08-11T04:51:51.053Z,94.67
2022-08-11T04:54:41.832Z,94.57
2022-08-11T04:57:33.101Z,94.32
2022-08-11T05:00:23.214Z,94.24
2022-08-11T05:03:19.200Z,94.20
2022-08-11T05:06:09.712Z,94.13
2022-08-11T05:08:53.672Z,94.21
2022-08-11T05:11:45.881Z,94.11
2022-08-11T05:14:48.053Z,93.43
2022-08-11T05:17:34.898Z,93.72
2022-08-11T05:20:22.536Z,93.69
2022-08-11T05:23:09.718Z,93.57
2022-08-11T05:26:44.641Z,93.67
2022-08-11T05:29:19.477Z,93.72
2022-08-11T05:32:14.529Z,94.01
2022-08-11T05:34:52.936Z,94.01
2022-08-11T05:37:27.299Z,93.67
2022-08-11T05:40:16.636Z,93.53
2022-08-11T05:43:08.972Z,93.19
2022-08-11T05:46:02.862Z,92.36
2022-08-11T05:48:52.702Z,89.34
2022-08-11T05:51:38.065Z,88.03
2022-08-11T05:54:29.283Z,83.58
2022-08-11T05:57:00.132Z,82.44
2022-08-11T05:59:29.489Z,81.27
2022-08-11T06:02:01.928Z,80.89
2022-08-11T06:04:30.269Z,79.84
2022-08-11T06:06:59.593Z,77.52
2022-08-11T06:09:33.670Z,75.88
2022-08-11T06:12:04.459Z,75.90
2022-08-11T06:14:34.052Z,74.94
2022-08-11T06:17:05.405Z,73.42
2022-08-11T06:19:40.117Z,72.96
2022-08-11T06:22:09.784Z,72.20
2022-08-11T06:24:40.150Z,70.70
2022-08-11T06:27:12.680Z,69.52
2022-08-11T06:29:55.048Z,68.76
2022-08-11T06:32:25.488Z,66.98
2022-08-11T06:35:02.889Z,65.70
2022-08-11T06:37:42.208Z,65.02
2022-08-11T06:40:12.785Z,64.95
2022-08-11T06:42:49.387Z,61.66
2022-08-11T06:45:28.951Z,60.01
2022-08-11T06:48:00.737Z,58.30
2022-08-11T06:50:47.347Z,53.02
2022-08-11T06:53:17.209Z,53.12
2022-08-11T06:56:04.455Z,52.76
2022-08-11T06:58:51.557Z,51.59
2022-08-11T07:01:28.402Z,48.90
2022-08-11T07:04:01.162Z,46.23
2022-08-11T07:06:51.144Z,45.72
2022-08-11T07:10:06.705Z,42.61
2022-08-11T07:12:59.199Z,43.40
2022-08-11T07:16:10.924Z,42.18
2022-08-11T07:18:53.679Z,39.64
2022-08-11T07:22:02.809Z,41.04
2022-08-11T07:25:02.038Z,38.21
2022-08-11T07:27:53.892Z,36.73
2022-08-11T07:30:22.410Z,41.95
2022-08-11T07:32:52.602Z,37.25
2022-08-11T07:35:25.717Z,36.54
2022-08-11T07:38:02.058Z,36.54
2022-08-11T07:40:30.297Z,37.38
2022-08-11T07:42:58.321Z,36.93
2022-08-11T07:45:44.633Z,36.12
2022-08-11T07:48:30.660Z,35.96
2022-08-11T07:51:17.446Z,35.89
2022-08-11T07:53:58.271Z,36.09
2022-08-11T07:56:55.431Z,35.10
2022-08-11T08:00:03.858Z,37.00
2022-08-11T08:02:45.126Z,36.65
2022-08-11T08:05:30.057Z,36.31
2022-08-11T08:08:17.324Z,35.93
2022-08-11T08:11:03.192Z,36.17
2022-08-11T08:13:50.708Z,37.00
2022-08-11T08:16:35.792Z,37.14
2022-08-11T08:19:03.349Z,35.75
2022-08-11T08:21:32.098Z,35.34
2022-08-11T08:24:01.310Z,34.94
2022-08-11T08:26:51.229Z,36.39
2022-08-11T08:29:40.524Z,35.65
2022-08-11T08:32:08.804Z,36.60
2022-08-11T08:34:36.462Z,37.33
2022-08-11T08:37:15.929Z,35.39
2022-08-11T08:39:55.090Z,35.18
2022-08-11T08:42:25.596Z,37.05
2022-08-11T08:44:58.749Z,37.16
2022-08-11T08:47:42.208Z,37.25
2022-08-11T08:50:16.299Z,34.96
2022-08-11T08:52:49.097Z,35.55
2022-08-11T08:55:19.894Z,37.79
2022-08-11T08:57:49.665Z,34.49
2022-08-11T09:00:23.015Z,34.95
2022-08-11T09:02:51.614Z,38.26
2022-08-11T09:05:21.212Z,34.98
2022-08-11T09:07:51.391Z,39.08
2022-08-11T09:10:21.397Z,35.16
2022-08-11T09:12:49.679Z,32.93
2022-08-11T09:15:19.672Z,32.70
2022-08-11T09:17:49.453Z,31.69
2022-08-11T09:20:20.365Z,34.72
2022-08-11T09:26:15.131Z,32.35
2022-08-11T09:28:43.793Z,32.30
2022-08-11T09:31:13.414Z,33.97
2022-08-11T09:33:42.803Z,33.24
2022-08-11T09:36:28.652Z,30.86
2022-08-11T09:39:16.724Z,31.43
2022-08-11T09:42:00.389Z,29.81
2022-08-11T09:44:48.540Z,33.40
2022-08-11T09:47:23.065Z,33.77
2022-08-11T09:49:53.137Z,30.36
2022-08-11T09:52:21.601Z,31.47
2022-08-11T09:54:51.013Z,32.87
2022-08-11T09:57:41.217Z,32.80
2022-08-11T10:00:13.130Z,31.69
2022-08-11T10:02:43.659Z,31.22
2022-08-11T10:05:30.117Z,30.59
2022-08-11T10:07:58.010Z,33.15
2022-08-11T10:10:26.074Z,30.63
2022-08-11T10:12:59.719Z,32.34
2022-08-11T10:15:38.742Z,31.16
2022-08-11T10:18:27.033Z,33.89
2022-08-11T10:20:58.887Z,31.20
2022-08-11T10:24:00.857Z,31.03
2022-08-11T10:26:54.322Z,29.72
2022-08-11T10:29:45.393Z,29.69
2022-08-11T10:32:49.383Z,30.67
2022-08-11T10:35:26.938Z,29.19
2022-08-11T10:38:07.948Z,30.98
2022-08-11T10:40:41.054Z,28.36
2022-08-11T10:43:13.362Z,28.89
2022-08-11T10:46:01.946Z,29.09
2022-08-11T10:48:32.141Z,28.85
2022-08-11T10:51:15.307Z,28.17
2022-08-11T10:54:04.271Z,30.28
2022-08-11T10:56:52.082Z,25.88
2022-08-11T10:59:19.979Z,28.79
2022-08-11T11:01:49.082Z,26.31
2022-08-11T11:04:17.422Z,26.87
2022-08-11T11:06:51.849Z,27.84
2022-08-11T11:09:21.858Z,28.71
2022-08-11T11:12:09.335Z,27.73
2022-08-11T11:14:59.021Z,28.64
2022-08-11T11:17:50.720Z,27.97
2022-08-11T11:20:36.957Z,27.67
2022-08-11T11:23:08.927Z,31.23
2022-08-11T11:25:45.059Z,29.18
2022-08-11T11:28:34.494Z,30.50
2022-08-11T11:31:12.709Z,30.08
2022-08-11T11:34:12.264Z,29.94
2022-08-11T11:36:46.515Z,26.51
2022-08-11T11:39:14.660Z,26.24
2022-08-11T11:41:43.163Z,26.67
2022-08-11T11:44:13.473Z,28.48
2022-08-11T11:46:41.325Z,27.56
2022-08-11T11:49:13.959Z,30.44
2022-08-11T11:51:44.785Z,27.65
2022-08-11T11:54:15.305Z,28.10
2022-08-11T11:56:43.968Z,27.43
2022-08-11T11:59:30.045Z,28.48
2022-08-11T12:01:57.914Z,29.03
2022-08-11T12:04:27.673Z,27.57
2022-08-11T12:07:15.414Z,27.39
2022-08-11T12:09:43.170Z,25.78
2022-08-11T12:12:28.170Z,27.11
2022-08-11T12:14:56.313Z,27.55
2022-08-11T12:17:24.705Z,25.32
2022-08-11T12:19:53.923Z,26.89
2022-08-11T12:22:42.577Z,26.03
2022-08-11T12:25:28.209Z,25.94
2022-08-11T12:27:56.486Z,25.12
2022-08-11T12:30:24.625Z,27.50
2022-08-11T12:32:53.462Z,27.07
2022-08-11T12:35:22.890Z,26.59
2022-08-11T12:38:02.630Z,26.93
2022-08-11T12:44:01.818Z,26.34
2022-08-11T12:46:32.175Z,26.45
2022-08-11T12:49:18.238Z,25.45
2022-08-11T12:52:11.398Z,24.91
2022-08-11T12:54:57.184Z,25.65
2022-08-11T12:57:46.277Z,25.46
2022-08-11T13:00:32.895Z,23.82
2022-08-11T13:03:18.237Z,23.17
2022-08-11T13:05:47.596Z,22.97
2022-08-11T13:08:17.641Z,23.65
2022-08-11T13:11:03.964Z,24.19
2022-08-11T13:13:55.458Z,25.30
2022-08-11T13:16:20.439Z,22.99
2022-08-11T13:18:48.285Z,24.94
2022-08-11T13:21:20.685Z,24.92
2022-08-11T13:24:01.115Z,23.93
2022-08-11T13:26:43.553Z,21.06
2022-08-11T13:29:17.461Z,24.84
2022-08-11T13:31:45.888Z,23.60
2022-08-11T13:34:13.686Z,23.84
2022-08-11T13:36:42.214Z,24.83
2022-08-11T13:39:11.517Z,23.85
2022-08-11T13:41:41.962Z,23.15
2022-08-11T13:44:12.284Z,24.43
2022-08-11T13:46:40.566Z,23.65
2022-08-11T13:49:12.306Z,22.86
2022-08-11T13:51:40.003Z,23.95
2022-08-11T13:54:09.070Z,24.72
2022-08-11T13:56:40.596Z,24.10
2022-08-11T13:59:09.271Z,22.40
2022-08-11T14:02:20.055Z,23.36
2022-08-11T14:04:32.240Z,22.37
2022-08-11T14:07:01.355Z,21.47
2022-08-11T14:09:31.985Z,21.58
2022-08-11T14:12:24.343Z,23.23
2022-08-11T14:15:02.223Z,22.13
2022-08-11T14:17:36.048Z,24.08
2022-08-11T14:20:39.872Z,22.68
2022-08-11T14:23:04.999Z,22.25
2022-08-11T14:26:01.039Z,20.31
2022-08-11T14:28:33.091Z,21.40
2022-08-11T14:31:05.377Z,21.93
2022-08-11T14:34:00.377Z,22.89
2022-08-11T14:36:22.397Z,22.81
2022-08-11T14:38:50.621Z,21.59
2022-08-11T14:41:36.659Z,26.05
2022-08-11T14:44:23.465Z,23.92
2022-08-11T14:47:24.008Z,22.02
2022-08-11T14:50:10.458Z,22.50
2022-08-11T14:52:49.744Z,20.96
2022-08-11T14:55:35.853Z,21.96
2022-08-11T14:58:03.982Z,21.75
2022-08-11T15:00:34.030Z,21.75
2022-08-11T15:03:10.446Z,21.20
2022-08-11T15:05:42.156Z,21.33
2022-08-11T15:08:48.017Z,20.96
2022-08-11T15:11:35.706Z,21.47
2022-08-11T15:14:04.718Z,21.11
2022-08-11T15:16:51.453Z,22.63
2022-08-11T15:19:20.921Z,21.51
2022-08-11T15:22:52.641Z,20.43
2022-08-11T15:25:21.040Z,22.02
2022-08-11T15:28:08.870Z,21.60
2022-08-11T15:30:55.467Z,21.78
2022-08-11T15:33:40.813Z,21.52
2022-08-11T15:36:27.973Z,21.27
2022-08-11T15:38:59.547Z,22.84
2022-08-11T15:41:54.488Z,22.54
2022-08-11T15:45:08.576Z,22.93
2022-08-11T15:47:39.299Z,22.18
2022-08-11T15:50:14.021Z,22.89
2022-08-11T15:52:47.506Z,22.76
2022-08-11T15:55:17.245Z,22.00
2022-08-11T15:58:03.105Z,21.79
2022-08-11T16:00:48.774Z,22.71
2022-08-11T16:04:07.119Z,24.48
2022-08-11T16:06:33.545Z,24.41
2022-08-11T16:09:05.784Z,26.55
2022-08-11T16:11:38.654Z,26.02
2022-08-11T16:14:24.509Z,25.92
2022-08-11T16:16:56.036Z,24.90
2022-08-11T16:19:24.333Z,26.27
2022-08-11T16:21:52.982Z,27.94
2022-08-11T16:27:01.456Z,27.30
2022-08-11T16:27:14.518Z,29.19
2022-08-11T16:29:47.698Z,29.00
2022-08-11T16:32:18.614Z,28.58
2022-08-11T16:35:06.685Z,29.27
2022-08-11T16:37:53.198Z,30.67
2022-08-11T16:40:22.559Z,29.53
2022-08-11T16:43:11.678Z,30.81
2022-08-11T16:45:57.750Z,29.75
2022-08-11T16:48:36.000Z,29.91
2022-08-11T16:51:06.170Z,30.07
2022-08-11T16:54:01.347Z,30.86
2022-08-11T16:56:23.337Z,31.17
2022-08-11T16:59:13.000Z,31.29
2022-08-11T17:01:40.947Z,31.11
2022-08-11T17:04:31.422Z,32.68
2022-08-11T17:07:40.098Z,31.19
2022-08-11T17:10:39.609Z,31.16
2022-08-11T17:13:12.804Z,31.58
2022-08-11T17:16:03.649Z,31.86
2022-08-11T17:18:40.969Z,32.64
2022-08-11T17:21:09.262Z,31.99
2022-08-11T17:23:52.501Z,32.26
2022-08-11T17:26:23.034Z,32.81
2022-08-11T17:28:53.957Z,33.50
2022-08-11T17:31:42.286Z,33.05
2022-08-11T17:34:27.963Z,32.62
2022-08-11T17:36:56.072Z,31.58
2022-08-11T17:39:29.084Z,33.08
2022-08-11T17:42:14.897Z,32.66
2022-08-11T17:45:01.025Z,32.32
2022-08-11T17:47:48.520Z,33.03
2022-08-11T17:50:16.435Z,32.31
2022-08-11T17:53:04.072Z,33.03
2022-08-11T17:55:52.312Z,31.80
2022-08-11T17:58:39.277Z,31.97
2022-08-11T18:01:08.744Z,33.33
2022-08-11T18:03:39.587Z,32.78
2022-08-11T18:06:12.205Z,33.63
2022-08-11T18:09:01.805Z,34.15
2022-08-11T18:12:06.571Z,34.69
2022-08-11T18:14:55.797Z,36.55
2022-08-11T18:17:41.146Z,35.38
2022-08-11T18:20:28.600Z,36.66
2022-08-11T18:23:14.135Z,36.88
2022-08-11T18:26:01.081Z,36.73
2022-08-11T18:28:49.439Z,37.25
2022-08-11T18:31:35.066Z,39.33
2022-08-11T18:34:22.722Z,40.70
2022-08-11T18:37:21.936Z,40.22
2022-08-11T18:40:14.494Z,43.02
2022-08-11T18:43:00.725Z,43.73
2022-08-11T18:45:46.422Z,44.64
2022-08-11T18:48:35.925Z,45.66
2022-08-11T18:51:30.842Z,47.13
2022-08-11T18:54:25.720Z,48.50
2022-08-11T18:57:12.090Z,48.40
2022-08-11T18:59:59.009Z,49.71
2022-08-11T19:02:48.580Z,50.82
2022-08-11T19:06:31.666Z,52.13
2022-08-11T19:08:42.228Z,53.83
2022-08-11T19:11:29.188Z,53.17
2022-08-11T19:14:14.812Z,52.56
2022-08-11T19:17:00.157Z,52.84
2022-08-11T19:19:47.848Z,55.02
2022-08-11T19:22:34.406Z,56.06
2022-08-11T19:25:25.133Z,55.66
2022-08-11T19:28:12.853Z,56.38
2022-08-11T19:30:59.810Z,57.87
2022-08-11T19:34:02.597Z,59.21
2022-08-11T19:36:50.886Z,59.98
2022-08-11T19:39:38.001Z,60.57
2022-08-11T19:42:24.474Z,61.14
2022-08-11T19:45:11.227Z,61.71
2022-08-11T19:48:14.436Z,61.51
2022-08-11T19:51:01.361Z,62.19
2022-08-11T19:53:48.723Z,63.02
2022-08-11T19:56:34.277Z,63.49
2022-08-11T19:59:19.801Z,64.11
2022-08-11T20:02:14.389Z,64.94
2022-08-11T20:05:00.239Z,66.40
2022-08-11T20:07:46.760Z,66.45
2022-08-11T20:10:34.682Z,66.49
2022-08-11T20:13:21.766Z,66.30
2022-08-11T20:16:07.374Z,66.47
2022-08-11T20:18:54.068Z,66.24
2022-08-11T20:21:40.067Z,65.52
2022-08-11T20:24:25.912Z,66.05
2022-08-11T20:27:18.741Z,66.83
2022-08-11T20:30:11.329Z,68.24
2022-08-11T20:32:57.410Z,68.15
2022-08-11T20:35:44.453Z,67.00
2022-08-11T20:38:30.603Z,67.03
2022-08-11T20:41:16.469Z,67.30
2022-08-11T20:44:08.333Z,68.25
2022-08-11T20:46:58.626Z,67.91
2022-08-11T20:49:53.642Z,69.28
2022-08-11T20:52:47.205Z,69.99
2022-08-11T20:55:46.294Z,69.86
2022-08-11T20:59:13.423Z,69.75
2022-08-11T21:01:45.482Z,69.77
2022-08-11T21:04:30.951Z,71.19
2022-08-11T21:07:23.564Z,71.15
2022-08-11T21:10:22.788Z,71.74
2022-08-11T21:13:25.728Z,72.65
2022-08-11T21:16:26.586Z,72.45
2022-08-11T21:19:16.125Z,72.67
2022-08-11T21:22:03.514Z,72.14
2022-08-11T21:24:49.572Z,71.51
2022-08-11T21:27:36.998Z,71.70
2022-08-11T21:30:22.955Z,73.40
2022-08-11T21:33:08.817Z,74.12
2022-08-11T21:35:54.091Z,73.80
2022-08-11T21:38:39.158Z,73.19
2022-08-11T21:41:25.129Z,73.22
2022-08-11T21:44:12.637Z,75.06
2022-08-11T21:46:58.572Z,76.78
2022-08-11T21:49:44.022Z,76.96
2022-08-11T21:52:29.341Z,76.68
2022-08-11T21:55:15.257Z,76.84
2022-08-11T21:58:00.840Z,76.87
2022-08-11T22:00:47.534Z,76.71
2022-08-11T22:03:36.533Z,76.47
2022-08-11T22:06:35.684Z,75.93
2022-08-11T22:09:21.663Z,75.57
2022-08-11T22:12:29.695Z,75.30
2022-08-11T22:15:11.917Z,75.51
2022-08-11T22:17:58.413Z,75.87
2022-08-11T22:20:45.322Z,76.19
2022-08-11T22:23:35.877Z,76.02
2022-08-11T22:26:22.958Z,76.49
2022-08-11T22:29:09.546Z,76.18
2022-08-11T22:31:55.119Z,75.81
2022-08-11T22:34:53.076Z,76.17
2022-08-11T22:37:39.602Z,75.68
2022-08-11T22:40:26.493Z,75.14
2022-08-11T22:43:11.593Z,75.76
2022-08-11T22:45:57.322Z,76.73
2022-08-11T22:48:43.963Z,76.72
2022-08-11T22:51:31.166Z,76.93
2022-08-11T22:54:16.298Z,75.91
2022-08-11T22:57:01.248Z,76.31
2022-08-11T22:59:46.346Z,77.00
2022-08-11T23:02:32.177Z,76.84
2022-08-11T23:05:18.157Z,77.31
2022-08-11T23:08:04.782Z,77.28
2022-08-11T23:10:50.216Z,77.24
2022-08-11T23:13:35.525Z,77.15
2022-08-11T23:16:21.322Z,76.98
2022-08-11T23:19:06.969Z,76.64
2022-08-11T23:21:53.361Z,77.01
2022-08-11T23:24:40.569Z,77.04
2022-08-11T23:27:27.299Z,77.86
2022-08-11T23:30:17.137Z,77.98
2022-08-11T23:33:05.241Z,78.27
2022-08-11T23:35:56.525Z,78.30
2022-08-11T23:38:43.028Z,78.35
2022-08-11T23:41:29.551Z,80.39
2022-08-11T23:44:14.868Z,81.08
2022-08-11T23:47:00.526Z,81.61
2022-08-11T23:49:45.778Z,81.12
2022-08-11T23:52:30.964Z,80.65
2022-08-11T23:55:16.443Z,80.93
2022-08-11T23:58:02.952Z,81.87
